Time;durP1;ratioP1;P1;durP2;ratioP2;P2;SDS_P1;SDS_P2;PMS_P1;PMS_P2;Temp;Humidity;BMP_temperature;BMP_pressure;BME280_temperature;BME280_humidity;BME280_pressure;Samples;Min_cycle;Max_cycle;Signal;HPM_P1;HPM_P2
2023/05/17 00:02:05;;;;;;;252.53;236.37;;;6.00;43.50;;;;;;5013907;28;20536;-69
2023/05/17 00:04:32;;;;;;;227.77;212.50;;;6.00;43.00;;;;;;5014110;28;20217;-69
2023/05/17 00:06:57;;;;;;;203.33;189.27;;;5.90;42.80;;;;;;5013884;28;20214;-70
2023/05/17 00:09:23;;;;;;;250.97;234.27;;;5.90;42.80;;;;;;5013975;28;20423;-69
2023/05/17 00:11:49;;;;;;;225.57;210.53;;;5.90;42.90;;;;;;5013537;28;20176;-69
2023/05/17 00:14:14;;;;;;;186.00;173.20;;;5.90;43.90;;;;;;5012596;28;20178;-69
2023/05/17 00:16:40;;;;;;;200.87;186.33;;;5.80;43.90;;;;;;5013680;28;20201;-69
2023/05/17 00:19:08;;;;;;;186.03;173.00;;;5.90;43.90;;;;;;5013775;28;20438;-69
2023/05/17 00:21:33;;;;;;;249.67;233.30;;;5.80;43.90;;;;;;5012079;28;20663;-69
2023/05/17 00:23:59;;;;;;;215.30;200.37;;;5.90;43.80;;;;;;5013336;28;20445;-70
2023/05/17 00:26:24;;;;;;;205.53;190.63;;;5.90;43.50;;;;;;5011796;28;20688;-70
2023/05/17 00:28:50;;;;;;;244.70;228.80;;;5.90;43.90;;;;;;5011962;28;20545;-70
2023/05/17 00:31:15;;;;;;;263.67;246.87;;;6.00;43.10;;;;;;5013227;28;20257;-69
2023/05/17 00:33:41;;;;;;;199.00;185.60;;;6.00;43.10;;;;;;5013019;28;20186;-69
2023/05/17 00:36:07;;;;;;;220.03;205.03;;;5.90;42.60;;;;;;5013276;28;20196;-70
2023/05/17 00:38:32;;;;;;;209.30;194.90;;;5.90;43.40;;;;;;5013121;28;20180;-70
2023/05/17 00:40:58;;;;;;;277.63;260.30;;;5.80;45.20;;;;;;5013999;28;20188;-69
2023/05/17 00:43:24;;;;;;;259.07;240.93;;;5.90;45.50;;;;;;5012956;28;20184;-69
2023/05/17 00:45:50;;;;;;;207.17;193.27;;;5.90;46.50;;;;;;5012964;28;20718;-70
2023/05/17 00:48:17;;;;;;;212.63;198.67;;;5.90;47.60;;;;;;5013020;28;20539;-69
2023/05/17 00:50:43;;;;;;;228.63;212.63;;;5.90;50.80;;;;;;5013026;28;20406;-69
2023/05/17 00:53:14;;;;;;;269.03;251.13;;;5.90;54.30;;;;;;5012544;28;20439;-69
2023/05/17 00:55:42;;;;;;;218.90;204.87;;;5.80;42.20;;;;;;5012881;28;20231;-69
2023/05/17 00:58:07;;;;;;;189.93;176.30;;;5.80;43.30;;;;;;5012866;28;20443;-70
2023/05/17 01:00:33;;;;;;;204.53;189.90;;;5.70;43.30;;;;;;5012869;28;20522;-70
2023/05/17 01:02:59;;;;;;;205.93;191.60;;;5.80;43.50;;;;;;5012573;28;20180;-69
2023/05/17 01:05:27;;;;;;;213.37;199.43;;;5.70;43.80;;;;;;5012621;28;20747;-70
2023/05/17 01:07:52;;;;;;;237.50;222.50;;;5.70;43.30;;;;;;5012661;28;20443;-68
2023/05/17 01:10:18;;;;;;;208.47;194.33;;;5.80;43.60;;;;;;5011258;28;20509;-69
2023/05/17 01:13:05;;;;;;;182.53;168.43;;;5.70;43.80;;;;;;5012525;28;20652;-70
2023/05/17 01:15:33;;;;;;;265.43;247.13;;;5.70;43.80;;;;;;5012653;28;20200;-69
2023/05/17 01:18:17;;;;;;;196.53;182.83;;;5.70;44.10;;;;;;5012580;28;20415;-69
2023/05/17 01:20:45;;;;;;;223.83;209.73;;;5.60;44.60;;;;;;5012573;28;20818;-69
2023/05/17 01:23:54;;;;;;;205.07;190.43;;;5.60;44.50;;;;;;5012370;28;20421;-69
2023/05/17 01:26:40;;;;;;;191.53;177.33;;;5.60;44.60;;;;;;5012427;28;20546;-70
2023/05/17 01:29:08;;;;;;;183.17;169.53;;;5.60;44.30;;;;;;5012589;28;20435;-71
2023/05/17 01:31:35;;;;;;;202.97;189.30;;;5.50;44.30;;;;;;5012303;28;20416;-70
2023/05/17 01:34:05;;;;;;;261.70;244.33;;;5.50;45.60;;;;;;5012297;28;20462;-71
2023/05/17 01:36:30;;;;;;;205.30;191.47;;;5.50;46.00;;;;;;5012272;28;20521;-69
2023/05/17 01:38:56;;;;;;;246.57;230.53;;;5.40;45.20;;;;;;5011929;28;20431;-70
2023/05/17 01:41:41;;;;;;;185.90;172.37;;;5.40;46.50;;;;;;5011990;28;20215;-70
2023/05/17 01:44:24;;;;;;;211.83;196.83;;;5.40;46.10;;;;;;5012207;28;20172;-70
2023/05/17 01:47:00;;;;;;;188.60;174.07;;;5.30;47.10;;;;;;5011820;28;20470;-69
2023/05/17 01:49:31;;;;;;;187.50;173.53;;;5.30;47.50;;;;;;5012154;28;20402;-70
2023/05/17 01:52:33;;;;;;;221.93;206.10;;;5.20;47.80;;;;;;5012452;28;20770;-71
2023/05/17 01:55:17;;;;;;;215.90;199.63;;;5.20;48.30;;;;;;4989017;28;20519;-70
2023/05/17 01:57:45;;;;;;;259.03;242.17;;;5.20;48.40;;;;;;5012545;28;20418;-71
2023/05/17 02:00:12;;;;;;;241.00;224.67;;;5.10;49.30;;;;;;5026992;28;20443;-70
2023/05/17 02:02:38;;;;;;;243.63;226.50;;;5.10;50.00;;;;;;5026664;28;20411;-70
2023/05/17 02:05:04;;;;;;;254.40;236.73;;;5.00;50.30;;;;;;5011981;28;20481;-71
2023/05/17 02:07:29;;;;;;;198.97;183.37;;;5.00;51.10;;;;;;5011521;28;20199;-70
2023/05/17 02:09:55;;;;;;;196.47;181.80;;;4.90;51.10;;;;;;5011689;28;20274;-70
2023/05/17 02:12:20;;;;;;;257.83;240.10;;;4.90;51.50;;;;;;5011368;28;20536;-70
2023/05/17 02:14:46;;;;;;;176.77;163.47;;;4.90;51.30;;;;;;5011666;28;20179;-70
2023/05/17 02:17:12;;;;;;;195.80;181.27;;;4.80;50.20;;;;;;5011529;28;20191;-70
2023/05/17 02:19:37;;;;;;;213.77;198.67;;;4.80;49.30;;;;;;5011563;28;20168;-70
2023/05/17 02:22:03;;;;;;;192.17;178.33;;;4.70;50.50;;;;;;5010848;28;20312;-70
2023/05/17 02:24:28;;;;;;;199.03;185.07;;;4.70;49.70;;;;;;5011379;28;20194;-70
2023/05/17 02:26:54;;;;;;;211.83;197.50;;;4.70;50.50;;;;;;5011339;28;20212;-70
2023/05/17 02:29:20;;;;;;;188.93;174.83;;;4.70;50.60;;;;;;5011479;28;20233;-73
2023/05/17 02:31:45;;;;;;;188.90;175.30;;;4.60;49.60;;;;;;5011418;28;20970;-72
2023/05/17 02:34:11;;;;;;;202.90;188.37;;;4.60;50.40;;;;;;5011491;28;20258;-72
2023/05/17 02:36:36;;;;;;;208.43;193.97;;;4.60;50.50;;;;;;5011357;28;20574;-72
2023/05/17 02:39:02;;;;;;;195.30;181.27;;;4.50;50.60;;;;;;5011427;28;20830;-72
2023/05/17 02:41:27;;;;;;;163.00;150.77;;;4.50;51.30;;;;;;5011228;28;20179;-72
2023/05/17 02:43:53;;;;;;;184.87;171.70;;;4.40;51.10;;;;;;5009831;28;20598;-72
2023/05/17 02:46:18;;;;;;;209.43;195.20;;;4.40;52.60;;;;;;5011147;28;20731;-72
2023/05/17 02:48:44;;;;;;;186.27;173.33;;;4.30;50.40;;;;;;5009937;28;20187;-72
2023/05/17 02:51:09;;;;;;;206.40;191.33;;;4.20;51.10;;;;;;5011223;28;20175;-71
2023/05/17 02:53:35;;;;;;;272.63;252.83;;;4.20;50.70;;;;;;5010805;28;20643;-72
2023/05/17 02:56:00;;;;;;;185.50;172.53;;;4.10;50.90;;;;;;5010768;28;20585;-72
2023/05/17 02:58:26;;;;;;;180.77;167.60;;;4.10;51.30;;;;;;5010920;28;20183;-72
2023/05/17 03:00:52;;;;;;;160.33;146.60;;;4.00;52.10;;;;;;5011112;28;20262;-72
2023/05/17 03:03:17;;;;;;;192.80;178.73;;;4.00;51.80;;;;;;5009590;28;20226;-72
2023/05/17 03:05:43;;;;;;;179.17;166.27;;;4.00;51.50;;;;;;5011542;28;20234;-72
2023/05/17 03:08:09;;;;;;;179.93;166.90;;;4.00;51.60;;;;;;5010137;28;20174;-72
2023/05/17 03:10:35;;;;;;;185.83;172.53;;;4.00;51.10;;;;;;5011450;28;20417;-72
2023/05/17 03:13:00;;;;;;;198.93;184.40;;;3.90;52.10;;;;;;5011332;28;20187;-72
2023/05/17 03:15:28;;;;;;;170.73;156.63;;;3.80;52.10;;;;;;5011417;28;20176;-72
2023/05/17 03:17:55;;;;;;;240.37;223.00;;;3.80;52.70;;;;;;5010056;28;20187;-72
2023/05/17 03:20:21;;;;;;;188.63;175.33;;;3.80;52.60;;;;;;5011324;28;20436;-72
2023/05/17 03:22:46;;;;;;;161.87;148.47;;;3.80;53.80;;;;;;5011057;28;20413;-72
2023/05/17 03:25:12;;;;;;;203.27;189.43;;;3.80;53.00;;;;;;5011219;28;20453;-72
2023/05/17 03:27:38;;;;;;;252.77;235.10;;;3.70;53.80;;;;;;5009992;28;20175;-72
2023/05/17 03:30:04;;;;;;;199.17;185.47;;;3.80;52.70;;;;;;5011385;28;20420;-72
2023/05/17 03:32:30;;;;;;;169.57;155.95;;;3.70;52.30;;;;;;5013291;28;20187;-72
2023/05/17 03:34:55;;;;;;;225.30;210.53;;;3.70;52.00;;;;;;5014804;28;20182;-72
2023/05/17 03:37:24;;;;;;;196.20;182.37;;;3.70;52.50;;;;;;5014977;28;20198;-74
2023/05/17 03:39:50;;;;;;;166.88;153.77;;;3.80;52.10;;;;;;5015228;28;20167;-73
2023/05/17 03:42:16;;;;;;;176.20;162.97;;;3.70;51.90;;;;;;5013316;28;20233;-73
2023/05/17 03:44:41;;;;;;;203.40;189.53;;;3.70;51.50;;;;;;5015304;28;20421;-73
2023/05/17 03:47:07;;;;;;;166.27;153.47;;;3.70;52.00;;;;;;5013603;28;20211;-73
2023/05/17 03:49:33;;;;;;;187.93;173.07;;;3.70;51.60;;;;;;5014978;28;20214;-73
2023/05/17 03:51:58;;;;;;;158.97;145.97;;;3.70;51.00;;;;;;5014689;28;20182;-73
2023/05/17 03:54:24;;;;;;;155.00;142.07;;;3.70;51.00;;;;;;5015008;28;20417;-73
2023/05/17 03:56:50;;;;;;;160.00;147.67;;;3.70;50.80;;;;;;5013414;28;20232;-73
2023/05/17 03:59:16;;;;;;;203.57;189.60;;;3.70;52.00;;;;;;5014417;28;20182;-72
2023/05/17 04:01:42;;;;;;;193.00;179.02;;;3.70;52.70;;;;;;5014411;28;20632;-71
2023/05/17 04:04:08;;;;;;;164.70;151.38;;;3.80;52.70;;;;;;5013951;28;20526;-70
2023/05/17 04:06:34;;;;;;;170.85;157.77;;;3.80;52.50;;;;;;5014307;28;20283;-71
2023/05/17 04:09:00;;;;;;;206.07;191.80;;;3.90;52.20;;;;;;5013561;28;20170;-76
2023/05/17 04:11:26;;;;;;;176.27;163.10;;;3.90;52.10;;;;;;5014030;28;20194;-69
2023/05/17 04:13:53;;;;;;;380.47;355.67;;;4.00;52.20;;;;;;5012540;28;20182;-70
2023/05/17 04:16:19;;;;;;;217.48;202.77;;;4.00;51.30;;;;;;5014069;28;20449;-70
2023/05/17 04:18:44;;;;;;;269.17;252.03;;;4.00;52.50;;;;;;5013135;28;20174;-70
2023/05/17 04:21:10;;;;;;;143.40;131.30;;;4.10;51.20;;;;;;5013833;28;21007;-70
2023/05/17 04:23:36;;;;;;;182.30;168.10;;;4.20;49.20;;;;;;5013552;28;20188;-70
2023/05/17 04:26:03;;;;;;;203.37;188.73;;;4.20;50.50;;;;;;5013588;28;20546;-70
2023/05/17 04:28:29;;;;;;;200.30;186.17;;;4.30;51.00;;;;;;5013772;28;20187;-71
2023/05/17 04:30:55;;;;;;;186.93;173.23;;;4.30;50.90;;;;;;5013593;28;20504;-71
2023/05/17 04:33:21;;;;;;;267.37;248.37;;;4.40;49.80;;;;;;5013498;28;20211;-70
2023/05/17 04:35:46;;;;;;;205.87;191.97;;;4.50;49.60;;;;;;5012079;28;20821;-70
2023/05/17 04:38:13;;;;;;;228.33;211.07;;;4.50;47.80;;;;;;5013242;28;20469;-70
2023/05/17 04:40:38;;;;;;;177.23;164.27;;;4.60;47.90;;;;;;5011596;28;20268;-71
2023/05/17 04:43:04;;;;;;;162.00;149.00;;;4.60;47.80;;;;;;5012775;28;20440;-71
2023/05/17 04:45:32;;;;;;;226.03;209.93;;;4.60;47.80;;;;;;5012166;28;20220;-69
2023/05/17 04:47:58;;;;;;;273.03;253.37;;;4.70;46.60;;;;;;5013526;28;20251;-69
2023/05/17 04:50:24;;;;;;;224.87;209.83;;;4.80;45.60;;;;;;5013383;28;20445;-70
2023/05/17 04:52:50;;;;;;;200.07;185.90;;;4.80;46.90;;;;;;5013124;28;20419;-70
2023/05/17 04:55:18;;;;;;;227.77;212.40;;;4.90;45.90;;;;;;5013628;28;20450;-71
2023/05/17 04:57:44;;;;;;;215.80;201.80;;;5.00;45.80;;;;;;5012135;28;20195;-71
2023/05/17 05:00:10;;;;;;;209.77;194.83;;;5.10;46.30;;;;;;5014511;28;20430;-70
2023/05/17 05:02:36;;;;;;;204.43;190.13;;;5.20;44.50;;;;;;5014164;28;20187;-70
2023/05/17 05:05:06;;;;;;;262.63;244.33;;;5.30;42.80;;;;;;5013952;28;20425;-70
2023/05/17 05:07:31;;;;;;;225.33;210.10;;;5.40;42.70;;;;;;5012072;28;20445;-70
2023/05/17 05:09:57;;;;;;;221.10;205.63;;;5.60;41.60;;;;;;5012982;28;20516;-70
2023/05/17 05:12:23;;;;;;;181.80;168.27;;;5.70;42.70;;;;;;5012744;28;20180;-70
2023/05/17 05:14:49;;;;;;;208.73;193.00;;;5.80;41.20;;;;;;5013056;28;20172;-70
2023/05/17 05:17:15;;;;;;;230.93;215.23;;;6.10;39.10;;;;;;5012721;28;20429;-70
2023/05/17 05:19:41;;;;;;;190.90;176.93;;;6.30;39.20;;;;;;5012842;28;20181;-70
2023/05/17 05:22:07;;;;;;;222.73;207.57;;;6.70;39.50;;;;;;5012391;28;20422;-70
2023/05/17 05:24:32;;;;;;;279.93;262.07;;;7.10;34.90;;;;;;5012636;28;20200;-70
2023/05/17 05:26:58;;;;;;;264.60;248.00;;;7.50;30.90;;;;;;5012712;28;20222;-70
2023/05/17 05:29:23;;;;;;;290.77;272.70;;;8.20;28.40;;;;;;5012696;28;20179;-70
2023/05/17 05:31:49;;;;;;;333.77;313.33;;;9.30;24.80;;;;;;5012453;28;20656;-70
2023/05/17 05:34:14;;;;;;;400.80;377.20;;;10.60;19.30;;;;;;5012658;28;20199;-71
2023/05/17 05:36:40;;;;;;;418.07;393.33;;;11.50;14.60;;;;;;5012392;28;20688;-71
2023/05/17 05:39:07;;;;;;;453.83;426.97;;;12.00;11.10;;;;;;5011076;28;20211;-71
2023/05/17 05:41:32;;;;;;;455.23;426.30;;;12.20;10.20;;;;;;5011154;28;20462;-70
2023/05/17 05:43:58;;;;;;;308.03;289.23;;;12.10;11.10;;;;;;5012431;28;20450;-70
2023/05/17 05:46:24;;;;;;;422.33;397.03;;;12.60;11.00;;;;;;5011918;28;20296;-70
2023/05/17 05:48:50;;;;;;;468.10;438.00;;;14.80;7.00;;;;;;5012340;28;20653;-70
2023/05/17 05:51:24;;;;;;;452.60;426.73;;;16.70;2.80;;;;;;5012336;28;20451;-72
2023/05/17 05:53:50;;;;;;;419.07;393.83;;;17.80;1.00;;;;;;5012754;28;20179;-71
2023/05/17 05:56:15;;;;;;;477.40;447.03;;;20.10;1.00;;;;;;5027153;22;20509;-70
2023/05/17 05:58:41;;;;;;;506.83;475.03;;;22.40;1.00;;;;;;5016088;28;20254;-70
2023/05/17 06:01:07;;;;;;;626.33;582.37;;;23.80;1.00;;;;;;5017334;28;20180;-70
2023/05/17 06:03:32;;;;;;;795.27;732.47;;;23.10;1.00;;;;;;5015948;28;20168;-70
2023/05/17 06:05:58;;;;;;;658.43;611.63;;;23.90;1.00;;;;;;5016639;28;20208;-70
2023/05/17 06:08:23;;;;;;;740.73;687.13;;;25.00;1.00;;;;;;5017149;28;20277;-70
2023/05/17 06:10:49;;;;;;;619.33;579.07;;;26.20;1.00;;;;;;5015567;28;20238;-70
2023/05/17 06:13:14;;;;;;;732.13;676.90;;;26.70;1.00;;;;;;5015081;28;20186;-70
2023/05/17 06:15:40;;;;;;;791.50;730.20;;;27.40;1.00;;;;;;5014090;28;20553;-70
2023/05/17 06:18:05;;;;;;;659.13;613.97;;;26.80;1.00;;;;;;5008028;28;20219;-70
2023/05/17 06:20:31;;;;;;;711.53;656.80;;;26.20;1.00;;;;;;5007191;28;20183;-69
2023/05/17 06:22:57;;;;;;;665.93;618.13;;;26.80;1.00;;;;;;5008060;28;20512;-69
2023/05/17 06:25:22;;;;;;;716.17;660.53;;;27.40;1.00;;;;;;5007882;28;20199;-71
2023/05/17 06:27:48;;;;;;;669.80;622.80;;;26.10;1.00;;;;;;5009396;28;20298;-68
2023/05/17 06:30:13;;;;;;;746.30;688.10;;;27.50;1.00;;;;;;5008678;28;20183;-69
2023/05/17 06:32:39;;;;;;;734.67;681.10;;;27.20;1.00;;;;;;5008666;28;20169;-69
2023/05/17 06:35:05;;;;;;;817.70;748.97;;;26.90;1.00;;;;;;5010176;28;20234;-74
2023/05/17 06:37:31;;;;;;;631.97;590.90;;;26.90;1.00;;;;;;5009007;28;20687;-69
2023/05/17 06:40:05;;;;;;;760.87;703.77;;;26.20;1.00;;;;;;5010454;28;20472;-68
2023/05/17 06:42:31;;;;;;;673.10;624.50;;;27.20;1.00;;;;;;5008776;28;20238;-71
2023/05/17 06:44:56;;;;;;;735.20;679.33;;;28.10;1.00;;;;;;5004930;28;20529;-69
2023/05/17 06:47:22;;;;;;;690.23;640.83;;;27.30;1.00;;;;;;5007231;28;21037;-69
2023/05/17 06:49:47;;;;;;;653.40;606.63;;;27.70;1.00;;;;;;5010528;28;20589;-69
2023/05/17 06:52:13;;;;;;;650.47;605.07;;;27.90;1.00;;;;;;5010212;28;20671;-69
2023/05/17 06:54:38;;;;;;;719.77;668.17;;;27.20;1.00;;;;;;5012868;28;20267;-77
2023/05/17 06:57:04;;;;;;;683.73;632.87;;;25.10;1.00;;;;;;5012785;28;20243;-70
2023/05/17 06:59:30;;;;;;;699.37;649.97;;;24.80;1.00;;;;;;5013236;28;20176;-69
2023/05/17 07:01:55;;;;;;;795.40;732.90;;;25.20;1.00;;;;;;5012292;28;20202;-68
2023/05/17 07:04:21;;;;;;;672.03;624.17;;;23.60;1.00;;;;;;5013083;28;20238;-68
2023/05/17 07:06:47;;;;;;;804.37;736.47;;;23.30;1.00;;;;;;5012554;28;20226;-69
2023/05/17 07:09:12;;;;;;;648.03;603.30;;;24.10;1.00;;;;;;5015291;28;20438;-69
2023/05/17 07:11:38;;;;;;;660.50;610.83;;;25.30;1.00;;;;;;5015344;28;20255;-69
2023/05/17 07:14:04;;;;;;;751.10;695.37;;;24.00;1.00;;;;;;5015223;28;20234;-69
2023/05/17 07:16:29;;;;;;;649.17;604.30;;;23.50;1.00;;;;;;5016151;28;20266;-70
2023/05/17 07:18:55;;;;;;;588.53;550.30;;;24.30;1.00;;;;;;5015857;28;20230;-69
2023/05/17 07:21:22;;;;;;;647.20;602.57;;;25.90;1.00;;;;;;5016535;28;20180;-69
2023/05/17 07:23:48;;;;;;;731.07;674.80;;;25.40;1.00;;;;;;5016701;28;20634;-69
2023/05/17 07:26:14;;;;;;;820.83;758.87;;;23.90;1.00;;;;;;5018225;28;20541;-70
2023/05/17 07:28:39;;;;;;;817.83;755.07;;;22.00;1.00;;;;;;5016516;28;20867;-69
2023/05/17 07:31:05;;;;;;;673.93;628.50;;;20.10;1.00;;;;;;5014737;28;20184;-68
2023/05/17 07:33:30;;;;;;;767.13;705.93;;;20.80;1.00;;;;;;5015844;28;20184;-68
2023/05/17 07:35:56;;;;;;;687.67;636.83;;;20.50;1.00;;;;;;5015874;28;20226;-69
2023/05/17 07:38:22;;;;;;;699.73;649.53;;;20.30;1.00;;;;;;5015912;28;20234;-70
2023/05/17 07:40:47;;;;;;;774.17;713.03;;;19.40;1.00;;;;;;5015796;28;20317;-69
2023/05/17 07:43:13;;;;;;;699.37;650.33;;;18.80;1.00;;;;;;5015451;28;20183;-69
2023/05/17 07:45:38;;;;;;;883.70;813.93;;;19.00;1.00;;;;;;5015682;28;20208;-69
2023/05/17 07:48:04;;;;;;;749.20;695.07;;;18.70;1.00;;;;;;5017704;28;20224;-70
2023/05/17 07:50:31;;;;;;;823.53;757.83;;;19.90;1.00;;;;;;5016018;28;20245;-69
2023/05/17 07:52:57;;;;;;;602.30;563.13;;;20.70;1.00;;;;;;5015111;28;20442;-70
2023/05/17 07:55:22;;;;;;;662.13;613.53;;;21.10;1.00;;;;;;5015386;28;20441;-69
2023/05/17 07:57:48;;;;;;;776.80;714.97;;;20.00;1.00;;;;;;5015805;28;20455;-70
2023/05/17 08:00:14;;;;;;;643.37;599.43;;;17.90;1.00;;;;;;5015086;28;20183;-69
2023/05/17 08:02:40;;;;;;;745.50;689.37;;;17.40;1.00;;;;;;5015873;28;20176;-69
2023/05/17 08:05:07;;;;;;;661.83;614.13;;;16.90;1.00;;;;;;5015490;28;20784;-70
2023/05/17 08:07:33;;;;;;;706.90;655.77;;;17.80;1.00;;;;;;5015092;28;20266;-71
2023/05/17 08:09:58;;;;;;;777.97;715.97;;;19.60;1.00;;;;;;5015746;28;20924;-70
2023/05/17 08:12:24;;;;;;;652.50;603.87;;;20.50;1.00;;;;;;5015392;28;20558;-70
2023/05/17 08:14:50;;;;;;;722.53;668.90;;;21.20;1.00;;;;;;5015599;28;20183;-70
2023/05/17 08:17:15;;;;;;;682.53;635.27;;;20.10;1.00;;;;;;5014890;28;20617;-69
2023/05/17 08:19:41;;;;;;;715.40;661.53;;;19.70;1.00;;;;;;5014685;28;20701;-69
2023/05/17 08:22:07;;;;;;;724.37;669.20;;;20.90;1.00;;;;;;5015112;28;20190;-69
2023/05/17 08:24:32;;;;;;;716.93;660.57;;;22.20;1.00;;;;;;5015162;28;20187;-69
2023/05/17 08:26:58;;;;;;;731.43;671.83;;;21.70;1.00;;;;;;5013282;28;20220;-69
2023/05/17 08:29:23;;;;;;;721.53;666.57;;;21.00;1.00;;;;;;5015092;28;20172;-69
2023/05/17 08:31:50;;;;;;;784.20;724.33;;;21.50;1.00;;;;;;5014408;28;20583;-69
2023/05/17 08:34:16;;;;;;;759.70;700.43;;;21.30;1.00;;;;;;5014475;28;20172;-69
2023/05/17 08:36:43;;;;;;;650.27;609.93;;;20.70;1.00;;;;;;5014011;28;20492;-69
2023/05/17 08:39:08;;;;;;;706.63;656.63;;;21.60;1.00;;;;;;5015631;28;20424;-70
2023/05/17 08:41:34;;;;;;;632.83;589.10;;;21.70;1.00;;;;;;5012997;28;20427;-69
2023/05/17 08:44:03;;;;;;;652.23;608.67;;;22.30;1.00;;;;;;5014766;28;20219;-69
2023/05/17 08:46:30;;;;;;;619.40;576.83;;;22.60;1.00;;;;;;5013898;28;20700;-69
2023/05/17 08:48:58;;;;;;;691.57;641.83;;;22.40;1.00;;;;;;5012730;28;20908;-70
2023/05/17 08:51:25;;;;;;;685.57;631.87;;;;;;;;;;5014237;28;20419;-70
2023/05/17 08:53:51;;;;;;;751.37;696.43;;;;;;;;;;5013618;28;20410;-69
2023/05/17 08:56:20;;;;;;;786.87;727.17;;;;;;;;;;5015037;28;20473;-69
2023/05/17 08:58:47;;;;;;;647.97;604.30;;;;;;;;;;5014287;28;20946;-69
2023/05/17 09:01:14;;;;;;;694.57;641.63;;;21.50;1.00;;;;;;5013839;28;20421;-69
2023/05/17 09:03:41;;;;;;;800.43;744.30;;;16.40;1.00;;;;;;5014693;28;20422;-69
2023/05/17 09:06:09;;;;;;;706.77;658.77;;;15.90;1.00;;;;;;5015067;28;20536;-69
2023/05/17 09:08:36;;;;;;;645.53;601.70;;;15.80;1.00;;;;;;5013865;28;20424;-69
2023/05/17 09:11:02;;;;;;;650.03;604.17;;;15.40;1.00;;;;;;5013758;28;20434;-72
2023/05/17 09:13:28;;;;;;;727.50;676.97;;;14.70;1.00;;;;;;5015136;28;20415;-68
2023/05/17 09:15:53;;;;;;;731.97;678.10;;;14.40;1.00;;;;;;5013751;28;20569;-69
2023/05/17 09:18:27;;;;;;;629.50;590.03;;;14.50;1.00;;;;;;5013397;28;20184;-69
2023/05/17 09:20:53;;;;;;;610.83;570.10;;;14.30;1.00;;;;;;5013875;28;20222;-72
2023/05/17 09:23:21;;;;;;;737.43;687.17;;;14.50;1.00;;;;;;5015562;28;20447;-73
2023/05/17 09:25:47;;;;;;;562.87;529.43;;;14.70;1.00;;;;;;5014307;28;20225;-74
2023/05/17 09:28:13;;;;;;;808.27;749.40;;;15.40;1.00;;;;;;5015535;28;20418;-71
2023/05/17 09:30:40;;;;;;;699.47;654.27;;;15.70;1.00;;;;;;5015785;28;20428;-71
2023/05/17 09:33:07;;;;;;;689.57;640.60;;;15.80;1.00;;;;;;5014709;28;20234;-71
2023/05/17 09:35:35;;;;;;;693.00;644.63;;;15.50;1.00;;;;;;5016831;28;20415;-72
2023/05/17 09:38:07;;;;;;;860.03;795.87;;;15.70;1.00;;;;;;5018508;28;20434;-71
2023/05/17 09:40:36;;;;;;;680.20;630.07;;;15.70;1.00;;;;;;5016590;28;20419;-71
2023/05/17 09:43:02;;;;;;;600.80;562.20;;;15.90;1.00;;;;;;5017097;28;20414;-71
2023/05/17 09:45:30;;;;;;;698.30;645.73;;;15.60;1.00;;;;;;5018230;28;20791;-71
2023/05/17 09:47:56;;;;;;;722.23;668.37;;;15.30;1.00;;;;;;5015484;28;20192;-70
2023/05/17 09:50:21;;;;;;;635.93;592.30;;;15.20;1.00;;;;;;5013776;28;20974;-71
2023/05/17 09:52:47;;;;;;;631.23;589.80;;;15.40;1.00;;;;;;5013191;28;20171;-70
2023/05/17 09:55:14;;;;;;;679.83;633.30;;;15.60;1.00;;;;;;5013249;28;20196;-71
2023/05/17 09:57:40;;;;;;;651.20;606.17;;;15.60;1.00;;;;;;5013187;28;20238;-70
2023/05/17 10:00:11;;;;;;;721.87;669.93;;;15.70;1.00;;;;;;5013454;28;20418;-70
2023/05/17 10:02:38;;;;;;;729.13;677.43;;;15.60;1.00;;;;;;5014012;28;20446;-69
2023/05/17 10:05:06;;;;;;;755.37;702.40;;;15.60;1.00;;;;;;5013552;28;20415;-71
2023/05/17 10:07:33;;;;;;;742.33;686.87;;;15.70;1.00;;;;;;5014065;28;20526;-71
2023/05/17 10:09:59;;;;;;;699.77;650.40;;;15.70;1.00;;;;;;5013707;28;20477;-71
2023/05/17 10:12:30;;;;;;;772.73;714.93;;;15.80;1.00;;;;;;5012673;28;20415;-71
2023/05/17 10:14:58;;;;;;;654.97;611.73;;;15.90;1.00;;;;;;5013585;28;20407;-71
2023/05/17 10:17:28;;;;;;;585.07;544.37;;;15.80;1.00;;;;;;5014311;28;20960;-71
2023/05/17 10:19:55;;;;;;;680.73;629.20;;;15.50;1.00;;;;;;5013487;28;20771;-71
2023/05/17 10:22:21;;;;;;;720.93;668.40;;;15.20;1.00;;;;;;5013202;28;20415;-72
2023/05/17 10:24:48;;;;;;;806.90;746.50;;;15.00;1.00;;;;;;5013714;28;20411;-71
2023/05/17 10:27:14;;;;;;;803.37;745.47;;;15.50;1.00;;;;;;5013148;28;20458;-76
2023/05/17 10:29:41;;;;;;;748.37;693.20;;;16.50;1.00;;;;;;5014700;28;20410;-75
2023/05/17 10:32:07;;;;;;;515.00;482.07;;;17.00;1.00;;;;;;5013599;28;20522;-71
2023/05/17 10:34:34;;;;;;;673.50;626.30;;;17.00;1.00;;;;;;5013248;28;20940;-72
2023/05/17 10:37:01;;;;;;;704.50;645.73;;;16.40;1.00;;;;;;5013288;28;20447;-73
2023/05/17 10:39:31;;;;;;;537.93;501.83;;;16.10;1.00;;;;;;5012026;28;20427;-74
2023/05/17 10:41:57;;;;;;;685.23;633.83;;;15.70;1.00;;;;;;4991875;28;20416;-74
2023/05/17 10:44:23;;;;;;;559.60;526.40;;;15.80;1.00;;;;;;4993066;28;20427;-74
2023/05/17 10:46:54;;;;;;;807.50;748.73;;;15.70;1.00;;;;;;4993197;28;20528;-74
2023/05/17 10:49:24;;;;;;;827.30;764.83;;;16.00;1.00;;;;;;5005705;28;20793;-74
2023/05/17 10:51:50;;;;;;;615.83;574.07;;;16.40;1.00;;;;;;5012021;28;20443;-74
2023/05/17 10:54:19;;;;;;;676.23;629.97;;;16.00;1.00;;;;;;5013089;28;20520;-74
2023/05/17 10:56:52;;;;;;;647.17;601.90;;;15.90;1.00;;;;;;5013962;28;20458;-73
2023/05/17 10:59:28;;;;;;;682.30;634.33;;;15.40;1.00;;;;;;5014458;28;20443;-74
2023/05/17 11:02:06;;;;;;;625.70;582.50;;;15.20;1.00;;;;;;5013182;28;20433;-74
2023/05/17 11:04:37;;;;;;;717.10;661.80;;;15.40;1.00;;;;;;5012860;28;20407;-73
2023/05/17 11:07:20;;;;;;;673.30;629.07;;;15.60;1.00;;;;;;5011511;28;20589;-74
2023/05/17 11:10:08;;;;;;;571.10;534.67;;;15.90;1.00;;;;;;5012041;28;20537;-74
2023/05/17 11:12:36;;;;;;;697.27;647.10;;;15.90;1.00;;;;;;5012470;28;20928;-74
2023/05/17 11:15:15;;;;;;;534.73;503.50;;;15.80;1.00;;;;;;5012012;28;20446;-74
2023/05/17 11:17:53;;;;;;;735.00;683.30;;;15.80;1.00;;;;;;5014767;28;20446;-74
2023/05/17 11:20:24;;;;;;;781.77;723.33;;;16.30;1.00;;;;;;4993453;28;20416;-74
2023/05/17 11:22:57;;;;;;;730.93;671.17;;;16.40;1.00;;;;;;4991208;28;20920;-74
2023/05/17 11:25:26;;;;;;;583.93;544.97;;;16.20;1.00;;;;;;4992233;28;20419;-73
2023/05/17 11:27:51;;;;;;;704.73;651.23;;;15.80;1.00;;;;;;4994845;28;20805;-74
2023/05/17 11:30:20;;;;;;;768.90;709.97;;;15.80;1.00;;;;;;5013058;28;20407;-73
2023/05/17 11:32:48;;;;;;;609.70;567.13;;;15.60;1.00;;;;;;5011238;28;20250;-75
2023/05/17 11:35:16;;;;;;;759.10;705.40;;;15.80;1.00;;;;;;5014267;28;20407;-73
2023/05/17 11:37:43;;;;;;;720.83;668.63;;;16.00;1.00;;;;;;5010694;28;20435;-72
2023/05/17 11:40:11;;;;;;;657.07;608.73;;;16.60;1.00;;;;;;5017865;28;20414;-70
2023/05/17 11:42:38;;;;;;;686.63;636.93;;;16.80;1.00;;;;;;5019875;28;20442;-71
2023/05/17 11:45:05;;;;;;;662.20;617.07;;;16.60;1.00;;;;;;5020759;28;20419;-71
2023/05/17 11:47:31;;;;;;;680.70;630.47;;;16.40;1.00;;;;;;5020800;28;20492;-71
2023/05/17 11:50:01;;;;;;;745.60;688.63;;;16.00;1.00;;;;;;5019575;28;20472;-71
2023/05/17 11:52:28;;;;;;;673.93;627.33;;;15.70;1.00;;;;;;5021643;28;20938;-71
2023/05/17 11:54:55;;;;;;;709.07;654.67;;;15.50;1.00;;;;;;5022600;28;20438;-72
2023/05/17 11:57:27;;;;;;;737.60;683.60;;;15.50;1.00;;;;;;5034144;23;20494;-67
2023/05/17 12:00:06;;;;;;;624.20;581.07;;;15.50;1.00;;;;;;5024649;28;20454;-69
2023/05/17 12:02:32;;;;;;;825.93;765.00;;;15.60;1.00;;;;;;5025105;28;20403;-70
2023/05/17 12:04:58;;;;;;;873.07;805.80;;;15.60;1.00;;;;;;5024502;28;20395;-66
2023/05/17 12:07:24;;;;;;;780.33;727.50;;;15.90;1.00;;;;;;5024065;28;20585;-69
2023/05/17 12:09:51;;;;;;;582.17;544.60;;;15.90;1.00;;;;;;5025136;28;20195;-69
2023/05/17 12:12:20;;;;;;;607.13;567.20;;;15.60;1.00;;;;;;5027620;28;20419;-70
2023/05/17 12:14:47;;;;;;;653.33;604.30;;;15.30;1.00;;;;;;5026075;28;20441;-69
2023/05/17 12:17:20;;;;;;;635.33;588.57;;;15.20;1.00;;;;;;5026028;28;20446;-66
2023/05/17 12:19:45;;;;;;;574.10;540.57;;;14.80;1.00;;;;;;5025508;28;20434;-69